Time;durP1;ratioP1;P1;durP2;ratioP2;P2;SDS_P1;SDS_P2;PMS_P1;PMS_P2;Temp;Humidity;BMP_temperature;BMP_pressure;BME280_temperature;BME280_humidity;BME280_pressure;Samples;Min_cycle;Max_cycle;Signal;HPM_P1;HPM_P2
2024/04/16 00:00:35;;;;;;;47.13;24.92;;;;;;;;;;5347111;26;19997;-66
2024/04/16 00:03:01;;;;;;;51.78;27.33;;;;;;;;;;5346732;26;20352;-68
2024/04/16 00:05:27;;;;;;;47.75;23.80;;;;;;;;;;5347053;26;20008;-67
2024/04/16 00:07:53;;;;;;;43.58;24.27;;;;;;;;;;5347302;26;20009;-66
2024/04/16 00:10:20;;;;;;;42.17;23.88;;;;;;;;;;5345388;26;20477;-65
2024/04/16 00:12:47;;;;;;;40.22;22.45;;;;;;;;;;5346578;26;20000;-64
2024/04/16 00:15:13;;;;;;;42.75;23.13;;;;;;;;;;5345102;26;20692;-66
2024/04/16 00:17:39;;;;;;;44.95;24.00;;;;;;;;;;5347023;26;20373;-66
2024/04/16 00:20:06;;;;;;;45.92;22.40;;;;;;;;;;5356440;26;20037;-66
2024/04/16 00:22:32;;;;;;;39.17;21.73;;;;;;;;;;5312137;26;20045;-67
2024/04/16 00:24:59;;;;;;;39.10;23.23;;;;;;;;;;5312309;26;20066;-66
2024/04/16 00:27:25;;;;;;;42.00;21.55;;;;;;;;;;5328129;26;19994;-66
2024/04/16 00:29:51;;;;;;;36.10;20.50;;;;;;;;;;5345464;26;20018;-66
2024/04/16 00:32:17;;;;;;;33.53;19.92;;;;;;;;;;5311652;26;20074;-66
2024/04/16 00:34:43;;;;;;;36.13;20.10;;;;;;;;;;5312257;26;20010;-66
2024/04/16 00:37:09;;;;;;;35.85;19.52;;;;;;;;;;5312228;26;20075;-67
2024/04/16 00:39:35;;;;;;;36.20;20.23;;;;;;;;;;5312252;26;20010;-67
2024/04/16 00:42:02;;;;;;;36.20;18.65;;;;;;;;;;5311738;26;20009;-67
2024/04/16 00:44:28;;;;;;;33.85;19.25;;;;;;;;;;5312112;26;20357;-67
2024/04/16 00:46:54;;;;;;;32.13;18.92;;;;;;;;;;5311936;26;20071;-67
2024/04/16 00:49:20;;;;;;;34.92;18.42;;;;;;;;;;5312042;26;19997;-68
2024/04/16 00:51:46;;;;;;;31.27;18.05;;;;;;;;;;5311726;26;20055;-67
2024/04/16 00:54:13;;;;;;;30.58;17.60;;;;;;;;;;5322745;26;20005;-66
2024/04/16 00:56:40;;;;;;;39.47;17.30;;;;;;;;;;5346913;26;20001;-66
2024/04/16 00:59:06;;;;;;;30.67;16.80;;;;;;;;;;5345852;26;20001;-66
2024/04/16 01:01:32;;;;;;;30.77;16.67;;;;;;;;;;5346099;26;20001;-67
2024/04/16 01:04:00;;;;;;;26.40;15.45;;;;;;;;;;5343087;26;19998;-67
2024/04/16 01:06:26;;;;;;;28.65;15.65;;;;;;;;;;5311877;26;20022;-68
2024/04/16 01:08:52;;;;;;;26.77;15.48;;;;;;;;;;5344225;26;20012;-68
2024/04/16 01:11:24;;;;;;;28.00;15.43;;;;;;;;;;5366991;26;20106;-68
2024/04/16 01:13:50;;;;;;;27.38;15.00;;;;;;;;;;5381121;26;20004;-67
2024/04/16 01:16:16;;;;;;;25.23;13.98;;;;;;;;;;5381348;26;20078;-67
2024/04/16 01:18:42;;;;;;;27.52;14.98;;;;;;;;;;5381517;26;20000;-66
2024/04/16 01:21:08;;;;;;;26.42;14.45;;;;;;;;;;5381324;26;20004;-66
2024/04/16 01:23:34;;;;;;;25.20;13.30;;;;;;;;;;5381058;26;20344;-66
2024/04/16 01:26:00;;;;;;;24.35;13.27;;;;;;;;;;5381393;26;20011;-67
2024/04/16 01:28:26;;;;;;;24.40;13.10;;;;;;;;;;5381119;26;20410;-66
2024/04/16 01:30:51;;;;;;;23.50;13.13;;;;;;;;;;5381436;26;20073;-67
2024/04/16 01:33:17;;;;;;;23.70;12.75;;;;;;;;;;5380836;26;20352;-67
2024/04/16 01:35:43;;;;;;;20.27;11.77;;;;;;;;;;5381166;26;20015;-66
2024/04/16 01:38:09;;;;;;;22.48;12.68;;;;;;;;;;5381197;26;20000;-68
2024/04/16 01:40:35;;;;;;;20.23;11.68;;;;;;;;;;5381029;26;20000;-65
2024/04/16 01:43:01;;;;;;;24.13;12.27;;;;;;;;;;5381009;26;20364;-67
2024/04/16 01:45:27;;;;;;;21.80;12.60;;;;;;;;;;5381139;26;20000;-67
2024/04/16 01:47:53;;;;;;;20.83;11.57;;;;;;;;;;5380906;26;20374;-68
2024/04/16 01:50:19;;;;;;;20.25;11.32;;;;;;;;;;5380600;26;20000;-68
2024/04/16 01:52:45;;;;;;;20.73;11.10;;;;;;;;;;5379524;26;20328;-68
2024/04/16 01:55:11;;;;;;;18.38;10.80;;;;;;;;;;5378920;26;20000;-67
2024/04/16 01:57:39;;;;;;;17.85;10.70;;;;;;;;;;5377828;26;20074;-68
2024/04/16 02:00:05;;;;;;;18.23;10.10;;;;;;;;;;5378236;26;20313;-67
2024/04/16 02:02:32;;;;;;;16.77;9.63;;;;;;;;;;5377913;26;20010;-68
2024/04/16 02:04:58;;;;;;;17.10;10.00;;;;;;;;;;5377965;26;20005;-66
2024/04/16 02:07:25;;;;;;;17.83;10.10;;;;;;;;;;5377917;26;20011;-65
2024/04/16 02:09:51;;;;;;;17.00;9.60;;;;;;;;;;5376905;26;20011;-66
2024/04/16 02:12:17;;;;;;;17.25;9.63;;;;;;;;;;5377255;26;20004;-65
2024/04/16 02:14:43;;;;;;;16.27;8.95;;;;;;;;;;5377867;26;20000;-65
2024/04/16 02:17:10;;;;;;;18.05;9.48;;;;;;;;;;5378007;26;20004;-65
2024/04/16 02:19:36;;;;;;;15.88;8.80;;;;;;;;;;5378090;26;20616;-66
2024/04/16 02:22:02;;;;;;;15.45;9.02;;;;;;;;;;5377334;26;20418;-66
2024/04/16 02:24:28;;;;;;;15.77;8.82;;;;;;;;;;5377970;26;20015;-66
2024/04/16 02:26:54;;;;;;;17.45;9.02;;;;;;;;;;5377592;26;20288;-66
2024/04/16 02:29:20;;;;;;;15.35;8.55;;;;;;;;;;5377772;26;20015;-66
2024/04/16 02:31:46;;;;;;;15.73;8.32;;;;;;;;;;5377061;26;20000;-66
2024/04/16 02:34:12;;;;;;;14.60;8.27;;;;;;;;;;5377536;26;20434;-66
2024/04/16 02:36:38;;;;;;;15.40;7.97;;;;;;;;;;5377645;26;20016;-65
2024/04/16 02:39:04;;;;;;;15.05;8.13;;;;;;;;;;5377706;26;20012;-66
2024/04/16 02:41:30;;;;;;;12.50;7.90;;;;;;;;;;5377236;26;20006;-67
2024/04/16 02:43:57;;;;;;;12.30;7.00;;;;;;;;;;5377541;26;20007;-65
2024/04/16 02:46:23;;;;;;;13.88;7.75;;;;;;;;;;5377523;26;20100;-65
2024/04/16 02:48:49;;;;;;;12.82;7.20;;;;;;;;;;5377920;26;20015;-65
2024/04/16 02:51:15;;;;;;;13.77;7.90;;;;;;;;;;5377981;26;20000;-66
2024/04/16 02:53:41;;;;;;;15.00;7.38;;;;;;;;;;5377530;26;20348;-65
2024/04/16 02:56:07;;;;;;;12.07;6.70;;;;;;;;;;5378455;26;20004;-65
2024/04/16 02:58:33;;;;;;;13.00;7.10;;;;;;;;;;5379225;26;20000;-65
2024/04/16 03:01:06;;;;;;;12.23;6.93;;;;;;;;;;5378425;26;20011;-66
2024/04/16 03:03:36;;;;;;;12.05;6.60;;;;;;;;;;5377123;26;20478;-66
2024/04/16 03:06:02;;;;;;;12.35;6.97;;;;;;;;;;5376947;26;20004;-66
2024/04/16 03:08:28;;;;;;;10.30;6.35;;;;;;;;;;5377275;26;20004;-68
2024/04/16 03:10:58;;;;;;;10.52;6.45;;;;;;;;;;5377095;26;20011;-67
2024/04/16 03:13:24;;;;;;;14.25;7.05;;;;;;;;;;5376751;26;20000;-66
2024/04/16 03:15:49;;;;;;;13.07;6.22;;;;;;;;;;5376665;26;20016;-67
2024/04/16 03:18:15;;;;;;;11.68;6.07;;;;;;;;;;5376678;26;20077;-68
2024/04/16 03:20:41;;;;;;;15.88;5.90;;;;;;;;;;5376147;26;20001;-67
2024/04/16 03:23:07;;;;;;;14.13;6.22;;;;;;;;;;5376540;26;20399;-65
2024/04/16 03:25:40;;;;;;;16.67;6.85;;;;;;;;;;5377002;26;20019;-66
2024/04/16 03:28:06;;;;;;;10.82;5.65;;;;;;;;;;5377147;26;20078;-66
2024/04/16 03:30:32;;;;;;;12.65;5.82;;;;;;;;;;5376881;26;20081;-66
2024/04/16 03:32:58;;;;;;;12.98;5.75;;;;;;;;;;5376093;26;20004;-66
2024/04/16 03:35:24;;;;;;;15.98;6.45;;;;;;;;;;5376604;26;20030;-66
2024/04/16 03:37:50;;;;;;;11.85;5.70;;;;;;;;;;5376746;26;20320;-66
2024/04/16 03:40:16;;;;;;;9.95;5.13;;;;;;;;;;5377396;26;20008;-67
2024/04/16 03:42:42;;;;;;;12.23;5.45;;;;;;;;;;5377053;26;20456;-65
2024/04/16 03:45:08;;;;;;;11.13;5.72;;;;;;;;;;5376726;26;20031;-68
2024/04/16 03:47:34;;;;;;;13.80;5.47;;;;;;;;;;5376622;26;20000;-67
2024/04/16 03:50:00;;;;;;;18.48;5.28;;;;;;;;;;5376608;26;20429;-67
2024/04/16 03:52:26;;;;;;;12.88;5.20;;;;;;;;;;5376840;26;20015;-67
2024/04/16 03:54:52;;;;;;;12.95;4.85;;;;;;;;;;5376312;26;19996;-66
2024/04/16 03:57:18;;;;;;;8.25;4.43;;;;;;;;;;5376496;26;20017;-66
2024/04/16 04:02:29;;;;;;;10.60;4.85;;;;;;;;;;5375732;26;20010;-66
2024/04/16 04:04:55;;;;;;;11.95;5.63;;;;;;;;;;5376064;26;20028;-66
2024/04/16 04:07:21;;;;;;;10.45;5.00;;;;;;;;;;5375966;26;20050;-66
2024/04/16 04:09:48;;;;;;;7.28;4.25;;;;;;;;;;5374373;26;20058;-65
2024/04/16 04:12:14;;;;;;;12.25;5.03;;;;;;;;;;5376087;26;20432;-66
2024/04/16 04:14:41;;;;;;;9.30;4.43;;;;;;;;;;5375886;26;20070;-65
2024/04/16 04:17:07;;;;;;;13.02;4.43;;;;;;;;;;5376321;26;20008;-67
2024/04/16 04:19:33;;;;;;;9.50;4.13;;;;;;;;;;5375999;26;20674;-66
2024/04/16 04:21:59;;;;;;;10.73;4.47;;;;;;;;;;5375765;26;20025;-66
2024/04/16 04:24:25;;;;;;;10.30;4.43;;;;;;;;;;5376297;26;20019;-67
2024/04/16 04:26:51;;;;;;;10.05;4.47;;;;;;;;;;5375835;26;20001;-68
2024/04/16 04:29:17;;;;;;;7.15;3.90;;;;;;;;;;5375385;26;20028;-66
2024/04/16 04:31:43;;;;;;;10.43;3.92;;;;;;;;;;5375416;26;20024;-66
2024/04/16 04:34:09;;;;;;;10.95;3.85;;;;;;;;;;5378029;26;20456;-64
2024/04/16 04:36:35;;;;;;;13.00;3.47;;;;;;;;;;5379422;26;20442;-65
2024/04/16 04:39:01;;;;;;;10.55;4.90;;;;;;;;;;5347625;26;20006;-65
2024/04/16 04:41:27;;;;;;;9.65;3.80;;;;;;;;;;5310501;26;20037;-65
2024/04/16 04:43:54;;;;;;;14.23;4.78;;;;;;;;;;5311663;26;20088;-63
2024/04/16 04:46:20;;;;;;;7.63;4.05;;;;;;;;;;5336965;26;20001;-65
2024/04/16 04:48:46;;;;;;;8.20;4.55;;;;;;;;;;5345021;26;20001;-64
2024/04/16 04:51:13;;;;;;;9.02;4.55;;;;;;;;;;5345286;26;20016;-67
2024/04/16 04:53:39;;;;;;;6.78;4.13;;;;;;;;;;5344526;26;20035;-66
2024/04/16 04:56:07;;;;;;;7.30;3.83;;;;;;;;;;5345243;26;20191;-66
2024/04/16 04:58:33;;;;;;;7.25;4.10;;;;;;;;;;5345186;26;20012;-66
2024/04/16 05:01:00;;;;;;;15.85;4.65;;;;;;;;;;5345359;26;20000;-65
2024/04/16 05:03:26;;;;;;;9.55;4.22;;;;;;;;;;5344969;26;20001;-66
2024/04/16 05:05:52;;;;;;;6.70;3.80;;;;;;;;;;5343214;26;20054;-66
2024/04/16 05:08:18;;;;;;;6.68;3.97;;;;;;;;;;5345255;26;20123;-65
2024/04/16 05:10:48;;;;;;;5.82;3.60;;;;;;;;;;5344999;26;20001;-66
2024/04/16 05:13:14;;;;;;;8.20;3.40;;;;;;;;;;5343198;26;19997;-66
2024/04/16 05:15:40;;;;;;;14.05;4.07;;;;;;;;;;5342152;26;19997;-66
2024/04/16 05:18:06;;;;;;;20.23;4.82;;;;;;;;;;5343770;26;20035;-66
2024/04/16 05:20:32;;;;;;;20.17;5.03;;;;;;;;;;5343528;26;20005;-68
2024/04/16 05:22:58;;;;;;;10.60;2.65;;;;;;;;;;5343509;26;20387;-68
2024/04/16 05:25:24;;;;;;;9.00;2.30;;;;;;;;;;5343359;26;20028;-68
2024/04/16 05:27:50;;;;;;;4.07;1.67;;;;;;;;;;5343468;26;20021;-68
2024/04/16 05:30:16;;;;;;;5.88;1.40;;;;;;;;;;5343479;26;20397;-68
2024/04/16 05:32:42;;;;;;;6.15;1.67;;;;;;;;;;5343559;26;20009;-66
2024/04/16 05:35:08;;;;;;;7.03;2.05;;;;;;;;;;5343601;26;20005;-68
2024/04/16 05:37:34;;;;;;;2.78;1.13;;;;;;;;;;5343208;26;20044;-68
2024/04/16 05:40:00;;;;;;;2.53;0.90;;;;;;;;;;5343167;26;20467;-71
2024/04/16 05:42:26;;;;;;;6.55;2.22;;;;;;;;;;5342704;26;20000;-66
2024/04/16 05:44:52;;;;;;;10.27;3.28;;;;;;;;;;5343048;26;20464;-67
2024/04/16 05:47:18;;;;;;;21.65;3.65;;;;;;;;;;5343010;26;20004;-66
2024/04/16 05:49:44;;;;;;;18.52;4.45;;;;;;;;;;5343090;26;20001;-67
2024/04/16 05:52:11;;;;;;;22.05;3.85;;;;;;;;;;5342749;26;20675;-64
2024/04/16 05:54:37;;;;;;;24.88;4.78;;;;;;;;;;5342606;26;20005;-67
2024/04/16 05:57:03;;;;;;;24.55;3.75;;;;;;;;;;5342935;26;20074;-68
2024/04/16 05:59:29;;;;;;;18.63;3.53;;;;;;;;;;5342999;26;20005;-68
2024/04/16 06:01:55;;;;;;;10.30;2.60;;;;;;;;;;5342619;26;20079;-66
2024/04/16 06:04:21;;;;;;;17.92;3.33;;;;;;;;;;5342879;26;20036;-68
2024/04/16 06:06:47;;;;;;;11.75;2.83;;;;;;;;;;5343027;26;20005;-68
2024/04/16 06:09:13;;;;;;;18.92;3.50;;;;;;;;;;5340697;26;20074;-70
2024/04/16 06:11:39;;;;;;;15.25;3.70;;;;;;;;;;5342605;26;20005;-69
2024/04/16 06:14:06;;;;;;;7.53;2.53;;;;;;;;;;5342724;26;20005;-69
2024/04/16 06:16:32;;;;;;;4.63;2.03;;;;;;;;;;5342831;26;20047;-68
2024/04/16 06:18:58;;;;;;;4.45;1.58;;;;;;;;;;5342739;26;20406;-66
2024/04/16 06:21:24;;;;;;;7.90;1.55;;;;;;;;;;5342503;26;20143;-66
2024/04/16 06:23:50;;;;;;;3.63;1.00;;;;;;;;;;5342088;26;20012;-67
2024/04/16 06:26:17;;;;;;;4.55;1.25;;;;;;;;;;5342379;26;20001;-66
2024/04/16 06:28:43;;;;;;;2.47;1.20;;;;;;;;;;5342695;26;20012;-69
2024/04/16 06:31:09;;;;;;;1.73;0.43;;;;;;;;;;5342554;26;20530;-69
2024/04/16 06:33:37;;;;;;;1.60;0.50;;;;;;;;;;5342276;26;20019;-69
2024/04/16 06:36:06;;;;;;;2.63;0.90;;;;;;;;;;5341877;26;20016;-69
2024/04/16 06:38:32;;;;;;;3.17;1.15;;;;;;;;;;5342368;26;20001;-70
2024/04/16 06:41:01;;;;;;;1.67;0.77;;;;;;;;;;5342270;26;20005;-69
2024/04/16 06:43:27;;;;;;;2.97;0.90;;;;;;;;;;5341552;26;20001;-70
2024/04/16 06:45:55;;;;;;;1.73;0.60;;;;;;;;;;5341976;26;20158;-70
2024/04/16 06:48:21;;;;;;;2.55;0.77;;;;;;;;;;5342164;26;20012;-70
2024/04/16 06:50:47;;;;;;;0.82;0.40;;;;;;;;;;5341974;26;20013;-70
2024/04/16 06:53:13;;;;;;;1.60;0.80;;;;;;;;;;5341724;26;20003;-70
2024/04/16 06:55:40;;;;;;;1.50;0.40;;;;;;;;;;5341992;26;20008;-69
2024/04/16 06:58:05;;;;;;;3.80;0.80;;;;;;;;;;5342403;26;20041;-70
2024/04/16 07:00:32;;;;;;;1.00;0.52;;;;;;;;;;5342184;26;20007;-70
2024/04/16 07:02:58;;;;;;;1.75;0.60;;;;;;;;;;5342086;26;20012;-70
2024/04/16 07:05:24;;;;;;;1.45;0.52;;;;;;;;;;5342479;26;20078;-70
2024/04/16 07:07:50;;;;;;;1.60;0.50;;;;;;;;;;5343165;26;20015;-70
2024/04/16 07:10:16;;;;;;;2.05;0.70;;;;;;;;;;5342801;26;20688;-69
2024/04/16 07:12:42;;;;;;;2.42;0.50;;;;;;;;;;5343125;26;20000;-69
2024/04/16 07:15:08;;;;;;;2.72;0.95;;;;;;;;;;5342329;26;20113;-67
2024/04/16 07:17:34;;;;;;;3.05;0.52;;;;;;;;;;5342156;26;20029;-69
2024/04/16 07:20:00;;;;;;;1.77;0.90;;;;;;;;;;5341851;26;20001;-68
2024/04/16 07:22:26;;;;;;;1.35;0.43;;;;;;;;;;5341637;26;20020;-69
2024/04/16 07:24:56;;;;;;;1.50;0.47;;;;;;;;;;5341966;26;20012;-68
2024/04/16 07:27:22;;;;;;;2.05;1.00;;;;;;;;;;5341794;26;20001;-69
2024/04/16 07:29:48;;;;;;;1.70;0.73;;;;;;;;;;5341593;26;20016;-69
2024/04/16 07:32:14;;;;;;;1.77;0.80;;;;;;;;;;5340939;26;20005;-68
2024/04/16 07:34:40;;;;;;;1.73;0.88;;;;;;;;;;5341157;26;19997;-67
2024/04/16 07:37:06;;;;;;;2.95;1.00;;;;;;;;;;5341317;26;20464;-68
2024/04/16 07:39:32;;;;;;;2.10;0.75;;;;;;;;;;5341441;26;20005;-69
2024/04/16 07:41:59;;;;;;;2.25;0.60;;;;;;;;;;5340981;26;20045;-68
2024/04/16 07:44:25;;;;;;;1.40;0.77;;;;;;;;;;5341458;26;20005;-68
2024/04/16 07:46:51;;;;;;;2.22;0.60;;;;;;;;;;5341052;26;20005;-69
2024/04/16 07:49:17;;;;;;;1.27;0.50;;;;;;;;;;5341160;26;20078;-70
2024/04/16 07:51:43;;;;;;;1.45;0.93;;;;;;;;;;5340796;26;20040;-69
2024/04/16 07:54:09;;;;;;;1.42;0.60;;;;;;;;;;5342778;26;20095;-67
2024/04/16 07:56:35;;;;;;;1.88;0.75;;;;;;;;;;5344098;26;20013;-70
2024/04/16 07:59:01;;;;;;;1.90;0.77;;;;;;;;;;5344055;26;20005;-69
2024/04/16 08:01:27;;;;;;;1.65;0.70;;;;;;;;;;5343968;26;20015;-67
2024/04/16 08:03:53;;;;;;;1.38;0.52;;;;;;;;;;5343396;26;20016;-69
2024/04/16 08:06:19;;;;;;;1.33;0.50;;;;;;;;;;5344060;26;20001;-70
2024/04/16 08:08:45;;;;;;;3.15;0.60;;;;;;;;;;5345428;26;20012;-69
2024/04/16 08:11:12;;;;;;;2.13;0.90;;;;;;;;;;5346824;26;20039;-70
2024/04/16 08:13:39;;;;;;;2.50;1.02;;;;;;;;;;5346542;26;20440;-69
2024/04/16 08:16:05;;;;;;;1.60;0.57;;;;;;;;;;5346804;26;20456;-69
2024/04/16 08:18:31;;;;;;;1.55;0.68;;;;;;;;;;5345038;26;20016;-69
2024/04/16 08:20:57;;;;;;;2.80;1.02;;;;;;;;;;5346559;26;20071;-69
2024/04/16 08:23:23;;;;;;;1.63;0.77;;;;;;;;;;5346290;26;20008;-69
2024/04/16 08:25:59;;;;;;;2.92;0.70;;;;;;;;;;5347195;26;20008;-69
2024/04/16 08:28:25;;;;;;;1.23;0.50;;;;;;;;;;5346884;26;20005;-69
2024/04/16 08:30:53;;;;;;;1.85;0.80;;;;;;;;;;5346388;26;20009;-68
2024/04/16 08:33:20;;;;;;;1.45;0.70;;;;;;;;;;5346595;26;20001;-69
2024/04/16 08:35:46;;;;;;;1.30;0.65;;;;;;;;;;5346712;26;20011;-69
2024/04/16 08:38:12;;;;;;;1.55;0.70;;;;;;;;;;5346485;26;20025;-69
2024/04/16 08:40:38;;;;;;;0.75;0.30;;;;;;;;;;5346692;26;20051;-69
2024/04/16 08:43:05;;;;;;;1.15;0.40;;;;;;;;;;5346115;26;20001;-69
2024/04/16 08:45:31;;;;;;;0.43;0.40;;;;;;;;;;5346710;26;20015;-70
2024/04/16 08:47:58;;;;;;;1.48;0.60;;;;;;;;;;5346617;26;20011;-70
2024/04/16 08:50:28;;;;;;;0.80;0.45;;;;;;;;;;5346691;26;20095;-69
2024/04/16 08:52:58;;;;;;;1.02;0.40;;;;;;;;;;5345970;26;20012;-69
2024/04/16 08:55:25;;;;;;;1.60;0.50;;;;;;;;;;5346584;26;20020;-69
2024/04/16 08:57:51;;;;;;;2.15;0.38;;;;;;;;;;5346299;26;20012;-69
2024/04/16 09:00:18;;;;;;;1.38;0.60;;;;;;;;;;5346013;26;20001;-69
2024/04/16 09:02:44;;;;;;;0.35;0.30;;;;;;;;;;5346180;26;20005;-69
2024/04/16 09:05:10;;;;;;;2.35;0.65;;;;;;;;;;5346251;26;20488;-69
2024/04/16 09:07:38;;;;;;;1.52;0.35;;;;;;;;;;5346119;26;20005;-70
2024/04/16 09:10:19;;;;;;;1.25;0.32;;;;;;;;;;5346228;26;20005;-69
2024/04/16 09:12:45;;;;;;;1.65;0.70;;;;;;;;;;5345506;26;20012;-69
2024/04/16 09:15:12;;;;;;;1.17;0.40;;;;;;;;;;5346100;26;20009;-69
2024/04/16 09:17:48;;;;;;;0.90;0.40;;;;;;;;;;5346142;26;20016;-69
2024/04/16 09:20:18;;;;;;;0.70;0.50;;;;;;;;;;5345711;26;20001;-69
2024/04/16 09:22:46;;;;;;;0.98;0.50;;;;;;;;;;5346104;26;20033;-69
2024/04/16 09:25:12;;;;;;;0.95;0.38;;;;;;;;;;5345873;26;20005;-69
2024/04/16 09:27:38;;;;;;;0.55;0.28;;;;;;;;;;5345782;26;20078;-70
2024/04/16 09:30:06;;;;;;;0.98;0.63;;;;;;;;;;5345954;26;20071;-69
2024/04/16 09:32:32;;;;;;;1.27;0.50;;;;;;;;;;5345736;26;20345;-70
2024/04/16 09:34:58;;;;;;;2.17;0.60;;;;;;;;;;5346215;26;20027;-69
2024/04/16 09:37:24;;;;;;;1.17;0.50;;;;;;;;;;5345695;26;20042;-70
2024/04/16 09:39:52;;;;;;;0.47;0.28;;;;;;;;;;5345879;26;20412;-70
2024/04/16 09:42:19;;;;;;;1.85;0.77;;;;;;;;;;5345685;26;20077;-70
2024/04/16 09:44:46;;;;;;;1.20;0.65;;;;;;;;;;5346005;26;20011;-68
2024/04/16 09:47:14;;;;;;;1.13;0.40;;;;;;;;;;5345822;26;20016;-69
2024/04/16 09:49:41;;;;;;;0.40;0.30;;;;;;;;;;5345725;26;20009;-69
2024/04/16 09:52:07;;;;;;;0.50;0.30;;;;;;;;;;5345192;26;20460;-69
2024/04/16 09:54:35;;;;;;;0.90;0.40;;;;;;;;;;5345406;26;20001;-69
2024/04/16 09:57:01;;;;;;;0.85;0.50;;;;;;;;;;5345710;26;20012;-70
2024/04/16 09:59:29;;;;;;;1.50;0.70;;;;;;;;;;5345675;26;20005;-69
2024/04/16 10:01:55;;;;;;;1.35;0.50;;;;;;;;;;5345115;26;20000;-69
2024/04/16 10:04:22;;;;;;;0.73;0.30;;;;;;;;;;5345405;26;20477;-69
2024/04/16 10:06:49;;;;;;;0.52;0.50;;;;;;;;;;5345267;26;20015;-69
2024/04/16 10:09:17;;;;;;;1.67;0.40;;;;;;;;;;5345312;26;20522;-70
2024/04/16 10:11:44;;;;;;;1.00;0.32;;;;;;;;;;5344672;26;20009;-68
2024/04/16 10:14:10;;;;;;;1.05;0.60;;;;;;;;;;5345004;26;20005;-69
2024/04/16 10:16:36;;;;;;;1.55;0.40;;;;;;;;;;5344985;26;20012;-69
2024/04/16 10:19:05;;;;;;;0.88;0.38;;;;;;;;;;5345558;26;20013;-69
2024/04/16 10:21:39;;;;;;;0.55;0.40;;;;;;;;;;5344867;26;20074;-69
2024/04/16 10:24:08;;;;;;;2.28;0.77;;;;;;;;;;5344797;26;20037;-68
2024/04/16 10:26:39;;;;;;;0.52;0.25;;;;;;;;;;5345051;26;20005;-69
2024/04/16 10:29:12;;;;;;;0.95;0.60;;;;;;;;;;5345244;26;20405;-70
2024/04/16 10:31:39;;;;;;;0.57;0.40;;;;;;;;;;5342917;26;20001;-69
2024/04/16 10:34:05;;;;;;;1.08;0.40;;;;;;;;;;5344865;26;20033;-69
2024/04/16 10:36:32;;;;;;;0.40;0.28;;;;;;;;;;5344804;26;20422;-69
2024/04/16 10:38:58;;;;;;;0.82;0.45;;;;;;;;;;5344920;26;20004;-69
2024/04/16 10:41:28;;;;;;;0.95;0.40;;;;;;;;;;5344299;26;20012;-69
2024/04/16 10:43:55;;;;;;;0.50;0.30;;;;;;;;;;5344701;26;20049;-69
2024/04/16 10:46:23;;;;;;;0.60;0.30;;;;;;;;;;5344530;26;20001;-69
2024/04/16 10:48:49;;;;;;;0.50;0.30;;;;;;;;;;5343066;26;20018;-69
2024/04/16 10:51:15;;;;;;;1.00;0.40;;;;;;;;;;5345015;26;20519;-69
2024/04/16 10:53:42;;;;;;;0.60;0.30;;;;;;;;;;5342608;26;20400;-69
2024/04/16 10:56:09;;;;;;;1.13;0.30;;;;;;;;;;5344741;26;20377;-69
2024/04/16 10:58:35;;;;;;;0.50;0.20;;;;;;;;;;5344677;26;20385;-69
2024/04/16 11:01:02;;;;;;;0.93;0.50;;;;;;;;;;5344881;26;20015;-68
2024/04/16 11:03:28;;;;;;;0.73;0.50;;;;;;;;;;5344599;26;19997;-68
2024/04/16 11:05:56;;;;;;;0.50;0.40;;;;;;;;;;5344999;26;20011;-69
2024/04/16 11:08:22;;;;;;;0.70;0.30;;;;;;;;;;5344926;26;20004;-69
2024/04/16 11:10:51;;;;;;;0.32;0.17;;;;;;;;;;5344977;26;20004;-68
2024/04/16 11:13:17;;;;;;;1.17;0.40;;;;;;;;;;5344495;26;20001;-69
2024/04/16 11:15:44;;;;;;;0.73;0.40;;;;;;;;;;5344693;26;20009;-69
2024/04/16 11:18:10;;;;;;;1.10;0.35;;;;;;;;;;5344962;26;20015;-69
2024/04/16 11:20:36;;;;;;;0.30;0.28;;;;;;;;;;5344661;26;20004;-69
2024/04/16 11:23:02;;;;;;;0.30;0.22;;;;;;;;;;5344368;26;20001;-68
2024/04/16 11:25:32;;;;;;;0.50;0.35;;;;;;;;;;5344790;26;20012;-69
2024/04/16 11:27:58;;;;;;;0.77;0.17;;;;;;;;;;5344896;26;20001;-69
2024/04/16 11:30:24;;;;;;;0.50;0.17;;;;;;;;;;5344325;26;20086;-69
2024/04/16 11:32:50;;;;;;;1.58;0.43;;;;;;;;;;5344274;26;20015;-69
2024/04/16 11:35:16;;;;;;;0.30;0.20;;;;;;;;;;5344480;26;20001;-69
2024/04/16 11:37:46;;;;;;;0.43;0.43;;;;;;;;;;5344725;26;20476;-69
2024/04/16 11:40:12;;;;;;;0.30;0.20;;;;;;;;;;5342496;26;20333;-68
2024/04/16 11:42:39;;;;;;;0.82;0.43;;;;;;;;;;5345769;26;20001;-69
2024/04/16 11:45:05;;;;;;;0.70;0.30;;;;;;;;;;5347625;26;20012;-69
2024/04/16 11:47:32;;;;;;;0.30;0.25;;;;;;;;;;5347449;26;19997;-69
2024/04/16 11:49:58;;;;;;;0.95;0.22;;;;;;;;;;5347502;26;19993;-69
2024/04/16 11:52:25;;;;;;;0.60;0.40;;;;;;;;;;5347163;26;20009;-69
2024/04/16 11:54:51;;;;;;;0.95;0.20;;;;;;;;;;5347451;26;20244;-69
2024/04/16 11:57:17;;;;;;;0.65;0.25;;;;;;;;;;5347135;26;20023;-69
2024/04/16 11:59:43;;;;;;;0.30;0.20;;;;;;;;;;5347513;26;20049;-69
2024/04/16 12:02:10;;;;;;;0.88;0.40;;;;;;;;;;5346864;26;20001;-69
2024/04/16 12:04:36;;;;;;;0.68;0.30;;;;;;;;;;5347371;26;20012;-69
2024/04/16 12:07:02;;;;;;;0.93;0.38;;;;;;;;;;5347260;26;19996;-69
2024/04/16 12:09:28;;;;;;;0.52;0.30;;;;;;;;;;5347232;26;20001;-69
2024/04/16 12:11:54;;;;;;;0.40;0.17;;;;;;;;;;5346699;26;20000;-68
2024/04/16 12:14:21;;;;;;;0.43;0.28;;;;;;;;;;5347347;26;20058;-68
2024/04/16 12:16:50;;;;;;;0.75;0.30;;;;;;;;;;5346979;26;20079;-69
2024/04/16 12:19:16;;;;;;;0.35;0.20;;;;;;;;;;5347077;26;20345;-69
2024/04/16 12:21:41;;;;;;;0.50;0.10;;;;;;;;;;5346715;26;20473;-69
2024/04/16 12:24:08;;;;;;;0.65;0.20;;;;;;;;;;5346832;26;20015;-69
2024/04/16 12:26:34;;;;;;;0.43;0.32;;;;;;;;;;5347583;26;20356;-69
2024/04/16 12:29:00;;;;;;;0.43;0.15;;;;;;;;;;5347409;26;20013;-69
2024/04/16 12:31:26;;;;;;;0.75;0.25;;;;;;;;;;5346724;26;20083;-68
2024/04/16 12:33:52;;;;;;;0.82;0.28;;;;;;;;;;5347066;26;20001;-68
2024/04/16 12:36:19;;;;;;;0.60;0.50;;;;;;;;;;5347343;26;20005;-68
2024/04/16 12:38:45;;;;;;;0.73;0.50;;;;;;;;;;5345049;26;20090;-69
2024/04/16 12:41:11;;;;;;;0.63;0.40;;;;;;;;;;5346455;26;20016;-68
2024/04/16 12:43:37;;;;;;;0.38;0.28;;;;;;;;;;5346361;26;19997;-69
2024/04/16 12:46:03;;;;;;;0.52;0.25;;;;;;;;;;5346624;26;20000;-69
2024/04/16 12:48:32;;;;;;;0.15;0.10;;;;;;;;;;5346730;26;20087;-69
2024/04/16 12:50:59;;;;;;;0.20;0.20;;;;;;;;;;5346207;26;20015;-68
2024/04/16 12:53:25;;;;;;;0.50;0.28;;;;;;;;;;5345362;26;20489;-69
2024/04/16 12:55:51;;;;;;;0.52;0.30;;;;;;;;;;5346823;26;20004;-69
2024/04/16 12:58:17;;;;;;;0.45;0.20;;;;;;;;;;5346398;26;20011;-68
2024/04/16 13:00:43;;;;;;;0.40;0.32;;;;;;;;;;5346317;26;20357;-68
2024/04/16 13:03:11;;;;;;;0.68;0.25;;;;;;;;;;5346780;26;20011;-69
2024/04/16 13:05:37;;;;;;;0.38;0.38;;;;;;;;;;5346439;26;20001;-68
2024/04/16 13:08:03;;;;;;;0.52;0.20;;;;;;;;;;5346623;26;20016;-68
2024/04/16 13:10:30;;;;;;;0.32;0.20;;;;;;;;;;5346671;26;20005;-68
2024/04/16 13:12:56;;;;;;;0.90;0.50;;;;;;;;;;5346000;26;20008;-69
2024/04/16 13:15:22;;;;;;;0.68;0.45;;;;;;;;;;5336592;26;20010;-67
2024/04/16 13:17:48;;;;;;;0.50;0.10;;;;;;;;;;5311778;26;20021;-68
2024/04/16 13:20:14;;;;;;;0.65;0.30;;;;;;;;;;5311760;27;20002;-68
2024/04/16 13:22:40;;;;;;;0.40;0.17;;;;;;;;;;5311055;26;20396;-68
2024/04/16 13:25:07;;;;;;;0.30;0.30;;;;;;;;;;5311034;26;20002;-68
2024/04/16 13:27:33;;;;;;;0.55;0.40;;;;;;;;;;5311585;26;20053;-68
2024/04/16 13:29:59;;;;;;;1.38;0.60;;;;;;;;;;5311957;27;20012;-69
2024/04/16 13:32:25;;;;;;;1.27;0.40;;;;;;;;;;5309369;26;20012;-69
2024/04/16 13:34:51;;;;;;;5.72;0.73;;;;;;;;;;5311655;27;20044;-69
2024/04/16 13:37:17;;;;;;;2.58;0.70;;;;;;;;;;5311644;26;20045;-69
2024/04/16 13:39:43;;;;;;;1.20;0.40;;;;;;;;;;5318594;26;20001;-68
2024/04/16 13:42:09;;;;;;;5.03;0.73;;;;;;;;;;5311130;26;20013;-69
2024/04/16 13:44:38;;;;;;;8.57;0.85;;;;;;;;;;5311561;27;20021;-72
2024/04/16 13:47:04;;;;;;;5.80;0.50;;;;;;;;;;5311744;26;20016;-68
2024/04/16 13:49:30;;;;;;;10.38;1.17;;;;;;;;;;5311330;26;20473;-70
2024/04/16 13:51:56;;;;;;;14.60;1.95;;;;;;;;;;5316663;26;20017;-70
2024/04/16 13:54:22;;;;;;;17.42;1.77;;;;;;;;;;5324985;26;20057;-66
2024/04/16 13:56:48;;;;;;;12.57;1.83;;;;;;;;;;5312285;26;20015;-67
2024/04/16 13:59:15;;;;;;;27.77;2.00;;;;;;;;;;5330708;26;20012;-66
2024/04/16 14:01:41;;;;;;;27.58;3.83;;;;;;;;;;5326586;26;20030;-68
2024/04/16 14:04:07;;;;;;;12.93;1.73;;;;;;;;;;5310752;26;20033;-67
2024/04/16 14:06:33;;;;;;;22.00;1.92;;;;;;;;;;5320691;26;20076;-70
2024/04/16 14:08:59;;;;;;;29.40;2.15;;;;;;;;;;5341630;26;20052;-68
2024/04/16 14:11:26;;;;;;;13.10;2.25;;;;;;;;;;5343383;26;20011;-68
2024/04/16 14:13:52;;;;;;;11.85;1.77;;;;;;;;;;5345102;26;20025;-67
2024/04/16 14:16:18;;;;;;;8.57;1.45;;;;;;;;;;5320019;26;20008;-67
2024/04/16 14:18:51;;;;;;;15.15;2.30;;;;;;;;;;5332686;26;20345;-69
2024/04/16 14:21:17;;;;;;;7.22;1.42;;;;;;;;;;5316871;26;20041;-68
2024/04/16 14:23:45;;;;;;;8.75;1.40;;;;;;;;;;5338265;26;20115;-68
2024/04/16 14:26:12;;;;;;;7.22;1.33;;;;;;;;;;5330023;26;20005;-67
2024/04/16 14:28:38;;;;;;;8.75;1.67;;;;;;;;;;5343912;26;20344;-68
2024/04/16 14:31:05;;;;;;;6.88;1.35;;;;;;;;;;5342864;26;19997;-69
2024/04/16 14:33:31;;;;;;;7.07;1.10;;;;;;;;;;5342736;26;20334;-67